CHICAGO AURORA MUNICIPAL, IL, United States (KARR) 41-46N 088-28W 215M
Wind: from the SE (130 degrees) at 10 MPH (9 KT):0
Visibility: 8 mile(s):0
Sky conditions: clear
Temperature: 28.0 F (-2.2 C)
Windchill: 19 F (-7 C):1
Dew Point: 19.9 F (-6.7 C)
Relative Humidity: 71%
Pressure (altimeter): 29.92 in. Hg (1013 hPa)
ob: KARR 090952Z AUTO 13009KT 8SM CLR M02/M07 A2992 RMK AO2 SLP140 T10221067
Raw METAR:KARR 090952Z AUTO 13009KT 8SM CLR M02/M07 A2992 RMK AO2 SLP140 T10221067
cycle: 10
Back to top

CHICAGO/WEST CH DUPAGE, IL, United States (KDPA) 41-54N 88-15W 230M
Wind: from the SSE (150 degrees) at 8 MPH (7 KT):0
Visibility: 10 mile(s):0
Sky conditions: clear
Temperature: 28.0 F (-2.2 C)
Windchill: 19 F (-7 C):1
Dew Point: 19.9 F (-6.7 C)
Relative Humidity: 71%
Pressure (altimeter): 29.94 in. Hg (1013 hPa)
ob: KDPA 090952Z 15007KT 10SM CLR M02/M07 A2994 RMK AO2 SLP148 T10221067
Raw METAR:KDPA 090952Z 15007KT 10SM CLR M02/M07 A2994 RMK AO2 SLP148 T10221067
cycle: 10
Back to top

De Kalb, De Kalb Taylor Municipal Airport, IL, United States (KDKB) 41-55-55N 088-42-30W
Wind: from the SE (130 degrees) at 14 MPH (12 KT) gusting to 18 MPH (16 KT):0
Visibility: 10 mile(s):0
Sky conditions: clear
Temperature: 27.0 F (-2.8 C)
Windchill: 15 F (-9 C):1
Dew Point: 21.0 F (-6.1 C)
Relative Humidity: 77%
Pressure (altimeter): 29.87 in. Hg (1011 hPa)
ob: KDKB 091035Z AUTO 13012G16KT 10SM CLR M03/M06 A2987 RMK AO2 T10281061
Raw METAR:KDKB 091035Z AUTO 13012G16KT 10SM CLR M03/M06 A2987 RMK AO2 T10281061
cycle: 10
Back to top

Joliet, Joliet Regional Airport, IL, United States (KJOT) 41-31-05N 088-10-31W
Wind: from the ESE (120 degrees) at 10 MPH (9 KT):0
Visibility: 10 mile(s):0
Sky conditions: clear
Temperature: 30.0 F (-1.1 C)
Windchill: 21 F (-6 C):1
Dew Point: 23.9 F (-4.5 C)
Relative Humidity: 77%
Pressure (altimeter): 29.9 in. Hg (1012 hPa)
ob: KJOT 091035Z AUTO 12009KT 10SM CLR M01/M04 A2990 RMK AO2 T10111045
Raw METAR:KJOT 091035Z AUTO 12009KT 10SM CLR M01/M04 A2990 RMK AO2 T10111045
cycle: 10
Back to top

Kankakee, Greater Kankakee Airport, IL, United States (KIKK) 41-04-17N 087-50-47W
Wind: from the SE (130 degrees) at 10 MPH (9 KT):0
Visibility: 10 mile(s):0
Sky conditions: clear
Temperature: 26 F (-3 C)
Windchill: 15 F (-9 C):1
Dew Point: 24 F (-4 C)
Relative Humidity: 92%
Pressure (altimeter): 29.93 in. Hg (1013 hPa)
ob: KIKK 091036Z AUTO 13009KT 10SM CLR M03/M04 A2993 RMK AO2
Raw METAR:KIKK 091036Z AUTO 13009KT 10SM CLR M03/M04 A2993 RMK AO2
cycle: 10
Back to top

Morris, Morris Municipal-James R Washburn Field Airport, IL, United States (KC09) 41-25-31N 088-25-07W
Wind: from the ESE (120 degrees) at 12 MPH (10 KT):0
Visibility: 10 mile(s):0
Sky conditions: clear
Temperature: 29.3 F (-1.5 C)
Windchill: 19 F (-7 C):1
Dew Point: 23.4 F (-4.8 C)
Relative Humidity: 78%
Pressure (altimeter): 29.88 in. Hg (1011 hPa)
ob: KC09 091035Z AUTO 12010KT 10SM CLR M01/M05 A2988 RMK AO2 T10151048
Raw METAR:KC09 091035Z AUTO 12010KT 10SM CLR M01/M05 A2988 RMK AO2 T10151048
cycle: 10
Back to top

Peru, Illinois Valley Regional-Walter A Duncan Field Airport, IL, United States (KVYS) 41-21-07N 089-09-11W
Wind: from the SE (140 degrees) at 18 MPH (16 KT) gusting to 25 MPH (22 KT):0
Visibility: 10 mile(s):0
Sky conditions: clear
Temperature: 32.5 F (0.3 C)
Windchill: 21 F (-6 C):1
Dew Point: 21.2 F (-6.0 C)
Relative Humidity: 62%
Pressure (altimeter): 29.85 in. Hg (1010 hPa)
ob: KVYS 091035Z AUTO 14016G22KT 10SM CLR 00/M06 A2985 RMK AO2 T00031060
Raw METAR:KVYS 091035Z AUTO 14016G22KT 10SM CLR 00/M06 A2985 RMK AO2 T00031060
cycle: 10
Back to top

Rochelle, Rochelle Municipal-Koritz Field Airport, IL, United States (KRPJ) 41-53-35N 089-04-42W
Wind: from the SE (130 degrees) at 17 MPH (15 KT):0
Visibility: 10 mile(s):0
Sky conditions: clear
Temperature: 28.0 F (-2.2 C)
Windchill: 15 F (-9 C):1
Dew Point: 20.8 F (-6.2 C)
Relative Humidity: 74%
Pressure (altimeter): 29.85 in. Hg (1010 hPa)
ob: KRPJ 091035Z AUTO 13015KT 10SM CLR M02/M06 A2985 RMK AO2 T10221062
Raw METAR:KRPJ 091035Z AUTO 13015KT 10SM CLR M02/M06 A2985 RMK AO2 T10221062
cycle: 10
Back to top